createdAt,value
2023-01-19T00:02:42.305Z,83.83971
2023-01-19T00:07:44.119Z,82.67029
2023-01-19T00:12:45.778Z,83.58405
2023-01-19T00:17:47.581Z,85.71713
2023-01-19T00:22:49.353Z,85.5265
2023-01-19T00:27:50.996Z,84.05117
2023-01-19T00:32:52.841Z,81.35085
2023-01-19T00:37:54.500Z,82.03741
2023-01-19T00:42:56.375Z,82.84929
2023-01-19T00:47:58.069Z,84.83088
2023-01-19T00:53:00.151Z,86.63366
2023-01-19T00:58:02.005Z,86.18893
2023-01-19T01:03:04.103Z,84.65017
2023-01-19T01:08:06.343Z,82.17497
2023-01-19T01:13:20.313Z,82.20364
2023-01-19T01:18:22.796Z,86.50194
2023-01-19T01:23:24.540Z,84.03456
2023-01-19T01:28:26.196Z,82.42138
2023-01-19T01:33:40.773Z,84.59161
2023-01-19T01:38:43.181Z,81.97368
2023-01-19T01:43:45.040Z,79.14702
2023-01-19T01:48:46.828Z,84.25139
2023-01-19T01:53:48.589Z,83.96877
2023-01-19T01:58:50.266Z,83.21795
2023-01-19T02:03:52.004Z,81.18441
2023-01-19T02:08:53.949Z,81.57663
2023-01-19T02:13:55.734Z,80.32285
2023-01-19T02:18:57.461Z,79.3755
2023-01-19T02:23:59.236Z,77.88604
2023-01-19T02:29:00.889Z,78.61605
2023-01-19T02:34:02.585Z,78.06109
2023-01-19T02:39:04.555Z,77.70797
2023-01-19T02:44:06.442Z,77.3389
2023-01-19T02:49:08.101Z,78.63547
2023-01-19T02:54:10.031Z,80.60923
2023-01-19T02:59:11.649Z,85.9278
2023-01-19T03:04:13.493Z,82.93198
2023-01-19T03:09:15.234Z,85.84793
2023-01-19T03:14:16.889Z,82.07676
2023-01-19T03:19:18.655Z,81.73932
2023-01-19T03:24:20.527Z,81.03874
2023-01-19T03:29:22.155Z,81.50599
2023-01-19T03:34:23.825Z,80.68405
2023-01-19T03:39:25.596Z,78.94852
2023-01-19T03:44:27.194Z,78.56748
2023-01-19T03:49:28.908Z,79.5158
2023-01-19T03:54:30.643Z,80.1683
2023-01-19T03:59:32.234Z,80.49657
2023-01-19T04:04:34.094Z,82.3487
2023-01-19T04:09:35.803Z,84.18515
2023-01-19T04:14:37.504Z,83.93134
2023-01-19T04:19:39.152Z,83.24588
2023-01-19T04:24:40.978Z,81.46633
2023-01-19T04:29:42.623Z,82.24565
2023-01-19T04:34:44.235Z,85.50033
2023-01-19T04:39:45.918Z,81.76847
2023-01-19T04:44:47.558Z,79.82261
2023-01-19T04:49:49.230Z,79.95702
2023-01-19T04:54:50.898Z,78.35354
2023-01-19T04:59:52.562Z,77.93418
2023-01-19T05:04:54.231Z,79.30786
2023-01-19T05:09:56.089Z,79.49592
2023-01-19T05:14:57.743Z,79.25244
2023-01-19T05:19:59.448Z,80.12638
2023-01-19T05:25:01.248Z,78.1134
2023-01-19T05:30:02.982Z,78.90189
2023-01-19T05:35:04.651Z,78.58718
2023-01-19T05:40:06.530Z,78.36706
2023-01-19T05:45:08.151Z,77.75306
2023-01-19T05:50:09.761Z,79.07805
2023-01-19T05:55:11.491Z,79.78696
2023-01-19T06:00:13.225Z,79.17352
2023-01-19T06:05:14.918Z,80.99658
2023-01-19T06:10:16.580Z,78.93196
2023-01-19T06:15:18.251Z,77.7072
2023-01-19T06:20:19.857Z,78.29156
2023-01-19T06:25:21.708Z,77.9434
2023-01-19T06:30:23.422Z,78.4629
2023-01-19T06:35:25.211Z,78.37191
2023-01-19T06:40:26.900Z,78.74104
2023-01-19T06:45:29.166Z,77.5692
2023-01-19T06:50:31.053Z,77.96984
2023-01-19T06:55:32.776Z,77.65898
2023-01-19T07:00:34.399Z,77.20778
2023-01-19T07:05:35.999Z,77.22487
2023-01-19T07:11:22.319Z,77.58149
2023-01-19T07:16:29.109Z,77.50367
2023-01-19T07:21:30.786Z,78.33142
2023-01-19T07:26:32.542Z,76.95792
2023-01-19T07:31:34.407Z,76.77512
2023-01-19T07:36:36.088Z,78.1143
2023-01-19T07:41:37.782Z,78.54245
2023-01-19T07:46:39.479Z,78.43936
2023-01-19T07:51:41.227Z,78.46938
2023-01-19T07:56:43.002Z,78.22802
2023-01-19T08:01:44.822Z,77.81241
2023-01-19T08:06:46.533Z,78.18957
2023-01-19T08:11:48.295Z,79.27619
2023-01-19T08:16:50.098Z,79.23153
2023-01-19T08:21:51.740Z,78.85703
2023-01-19T08:26:53.567Z,81.01235
2023-01-19T08:31:56.067Z,80.40244
2023-01-19T08:36:57.832Z,77.73596
2023-01-19T08:41:59.566Z,75.99946
2023-01-19T08:47:01.252Z,77.52579
2023-01-19T08:52:03.081Z,77.55187
2023-01-19T08:57:04.774Z,77.75131
2023-01-19T09:02:06.526Z,78.12828
2023-01-19T09:07:08.553Z,78.32747
2023-01-19T09:12:10.329Z,78.10996
2023-01-19T09:17:11.948Z,78.42125
2023-01-19T09:22:13.571Z,79.14753
2023-01-19T09:27:15.258Z,77.93367
2023-01-19T09:32:17.134Z,77.67754
2023-01-19T09:37:18.718Z,78.39614
2023-01-19T09:42:20.638Z,76.45947
2023-01-19T09:47:22.322Z,78.28728
2023-01-19T09:52:24.029Z,77.80284
2023-01-19T09:57:25.826Z,78.56453
2023-01-19T10:02:27.471Z,78.33114
2023-01-19T10:07:29.092Z,78.29656
2023-01-19T10:12:30.949Z,77.26362
2023-01-19T10:17:32.632Z,78.83285
2023-01-19T10:22:34.252Z,79.51338
2023-01-19T10:27:36.078Z,79.58904
2023-01-19T10:32:37.741Z,83.46567
2023-01-19T10:37:39.374Z,85.13649
2023-01-19T10:42:41.144Z,84.02029
2023-01-19T10:47:43.050Z,84.49524
2023-01-19T10:52:44.803Z,85.07396
2023-01-19T10:57:46.563Z,81.08175
2023-01-19T11:02:48.415Z,81.11252
2023-01-19T11:07:50.100Z,84.1765
2023-01-19T11:12:51.776Z,83.81037
2023-01-19T11:17:53.423Z,81.72313
2023-01-19T11:22:55.101Z,80.83396
2023-01-19T11:27:56.891Z,78.78419
2023-01-19T11:32:58.765Z,81.95402
2023-01-19T11:38:00.521Z,80.59512
2023-01-19T11:43:02.631Z,82.69382
2023-01-19T11:48:04.739Z,82.91643
2023-01-19T11:53:06.485Z,82.76392
2023-01-19T11:58:08.128Z,79.64594
2023-01-19T12:03:09.831Z,77.69164
2023-01-19T12:08:11.495Z,79.33638
2023-01-19T12:13:13.195Z,79.65697
2023-01-19T12:18:14.925Z,82.67137
2023-01-19T12:23:16.784Z,81.29727
2023-01-19T12:28:18.510Z,80.23485
2023-01-19T12:33:20.248Z,78.73714
2023-01-19T12:38:21.869Z,80.95279
2023-01-19T12:43:23.804Z,79.91243
2023-01-19T12:48:25.660Z,84.26372
2023-01-19T12:53:27.296Z,82.38113
2023-01-19T12:58:29.650Z,80.89879
2023-01-19T13:03:31.272Z,79.33887
2023-01-19T13:08:33.367Z,82.53534
2023-01-19T13:13:35.185Z,80.59313
2023-01-19T13:18:37.032Z,85.07179
2023-01-19T13:23:38.664Z,82.20327
2023-01-19T13:28:40.462Z,79.63264
2023-01-19T13:33:42.049Z,79.90105
2023-01-19T13:38:43.708Z,79.32153
2023-01-19T13:43:45.446Z,79.5894
2023-01-19T13:48:47.056Z,80.20308
2023-01-19T13:53:48.768Z,81.88931
2023-01-19T13:58:50.873Z,83.09882
2023-01-19T14:03:52.521Z,81.68956
2023-01-19T14:08:54.226Z,82.32107
2023-01-19T14:13:56.141Z,85.5893
2023-01-19T14:18:57.713Z,82.72111
2023-01-19T14:23:59.349Z,80.37384
2023-01-19T14:29:01.181Z,81.41726
2023-01-19T14:34:02.812Z,79.48356
2023-01-19T14:39:04.533Z,78.92629
2023-01-19T14:44:06.267Z,78.25176
2023-01-19T14:49:07.928Z,81.28038
2023-01-19T14:54:09.600Z,83.57966
2023-01-19T14:59:11.353Z,81.09232
2023-01-19T15:04:13.260Z,82.09267
2023-01-19T15:09:14.915Z,79.61438
2023-01-19T15:14:16.605Z,79.5425
2023-01-19T15:19:18.295Z,81.67793
2023-01-19T15:24:20.055Z,80.00147
2023-01-19T15:29:21.850Z,79.51045
2023-01-19T15:34:23.570Z,80.65165
2023-01-19T15:39:25.244Z,84.14253
2023-01-19T15:44:27.061Z,84.94764
2023-01-19T15:49:28.842Z,84.54383
2023-01-19T15:54:30.478Z,82.72591
2023-01-19T15:59:32.236Z,83.60486
2023-01-19T16:04:34.021Z,80.56577
2023-01-19T16:09:35.735Z,81.35961
2023-01-19T16:14:37.517Z,84.91923
2023-01-19T16:19:39.156Z,80.25148
2023-01-19T16:24:40.840Z,79.66669
2023-01-19T16:29:42.653Z,80.65406
2023-01-19T16:34:44.333Z,80.00048
2023-01-19T16:39:46.065Z,80.5484
2023-01-19T16:44:47.834Z,79.48964
2023-01-19T16:49:49.484Z,80.19589
2023-01-19T16:54:51.151Z,81.36748
2023-01-19T16:59:52.883Z,86.60628
2023-01-19T17:04:54.598Z,82.7406
2023-01-19T17:09:56.218Z,79.77267
2023-01-19T17:14:58.088Z,82.04605
2023-01-19T17:19:59.796Z,84.2396
2023-01-19T17:25:02.469Z,82.58753
2023-01-19T17:30:04.348Z,86.35074
2023-01-19T17:35:05.950Z,84.14629
2023-01-19T17:40:07.581Z,81.28665
2023-01-19T17:45:09.351Z,80.95239
2023-01-19T17:50:11.226Z,80.75914
2023-01-19T17:55:13.066Z,80.68205
2023-01-19T18:00:15.145Z,80.73192
2023-01-19T18:05:17.533Z,80.97825
2023-01-19T18:10:19.185Z,81.1448
2023-01-19T18:15:21.115Z,82.25916
2023-01-19T18:20:22.789Z,83.69068
2023-01-19T18:25:24.411Z,83.36845
2023-01-19T18:30:26.281Z,82.24601
2023-01-19T18:35:27.941Z,82.2969
2023-01-19T18:40:29.602Z,84.62893
2023-01-19T18:45:31.505Z,85.53801
2023-01-19T18:50:33.362Z,84.12616
2023-01-19T18:55:34.992Z,84.47886
2023-01-19T19:00:36.943Z,83.5097
2023-01-19T19:05:38.643Z,79.3185
2023-01-19T19:10:40.363Z,83.95141
2023-01-19T19:15:42.149Z,83.0931
2023-01-19T19:20:43.919Z,84.32468
2023-01-19T19:25:45.661Z,83.02855
2023-01-19T19:30:47.566Z,80.56364
2023-01-19T19:35:49.366Z,80.60496
2023-01-19T19:40:51.189Z,81.96327
2023-01-19T19:45:53.956Z,79.25057
2023-01-19T19:50:55.622Z,80.82808
2023-01-19T19:55:57.255Z,78.40291
2023-01-19T20:00:59.166Z,81.06999
2023-01-19T20:06:00.882Z,80.50737
2023-01-19T20:11:02.585Z,76.54358
2023-01-19T20:16:04.436Z,79.07831
2023-01-19T20:21:06.109Z,73.57578
2023-01-19T20:26:07.758Z,72.51225
2023-01-19T20:31:09.480Z,70.04798
2023-01-19T20:36:11.100Z,67.98063
2023-01-19T20:41:12.861Z,70.94864
2023-01-19T20:46:14.620Z,71.52323
2023-01-19T20:51:16.237Z,70.15093
2023-01-19T20:56:17.886Z,70.40409
2023-01-19T21:01:19.913Z,68.46652
2023-01-19T21:06:21.661Z,71.45783
2023-01-19T21:11:23.346Z,69.36511
2023-01-19T21:16:25.104Z,69.83794
2023-01-19T21:21:30.426Z,69.51854
2023-01-19T21:26:32.877Z,71.00692
2023-01-19T21:31:34.681Z,70.06669
2023-01-19T21:36:36.347Z,71.64264
2023-01-19T21:41:38.107Z,73.68218
2023-01-19T21:46:39.868Z,69.89528
2023-01-19T21:51:41.759Z,72.91906
2023-01-19T21:56:43.400Z,73.67093
2023-01-19T22:01:45.241Z,70.34572
2023-01-19T22:06:46.948Z,71.9775
2023-01-19T22:11:48.643Z,73.55908
2023-01-19T22:16:50.379Z,74.21208
2023-01-19T22:21:52.078Z,75.81217
2023-01-19T22:26:53.755Z,75.13895
2023-01-19T22:31:55.483Z,75.01205
2023-01-19T22:36:57.162Z,75.71757
2023-01-19T22:41:58.915Z,77.82386
2023-01-19T22:47:00.786Z,76.40431
2023-01-19T22:52:02.416Z,78.14531
2023-01-19T22:57:04.120Z,80.72325
2023-01-19T23:02:05.981Z,80.62809
2023-01-19T23:07:08.176Z,81.82562
2023-01-19T23:12:09.794Z,83.63756
2023-01-19T23:17:11.425Z,81.81091
2023-01-19T23:22:13.145Z,77.35553
2023-01-19T23:27:14.892Z,81.58378
2023-01-19T23:32:16.555Z,81.03451
2023-01-19T23:37:18.291Z,78.0499
2023-01-19T23:42:19.936Z,80.576
2023-01-19T23:47:21.754Z,80.93638
2023-01-19T23:52:23.381Z,77.16686
2023-01-19T23:57:24.982Z,75.37391
